Time;durP1;ratioP1;P1;durP2;ratioP2;P2;SDS_P1;SDS_P2;PMS_P1;PMS_P2;Temp;Humidity;BMP_temperature;BMP_pressure;BME280_temperature;BME280_humidity;BME280_pressure;Samples;Min_cycle;Max_cycle;Signal;HPM_P1;HPM_P2
2021/09/18 00:01:20;;;;;;;0.90;0.90;;;8.40;99.90;;;;;;5077121;28;20223;-71
2021/09/18 00:03:45;;;;;;;0.60;0.60;;;8.40;99.90;;;;;;5095224;28;20220;-71
2021/09/18 00:06:11;;;;;;;1.02;1.02;;;8.40;99.90;;;;;;5078500;28;20211;-70
2021/09/18 00:08:37;;;;;;;0.60;0.60;;;8.40;99.90;;;;;;5092898;28;20632;-70
2021/09/18 00:11:03;;;;;;;1.05;1.02;;;8.40;99.90;;;;;;5079409;28;20209;-71
2021/09/18 00:13:31;;;;;;;0.52;0.52;;;8.50;99.90;;;;;;5078251;28;20204;-70
2021/09/18 00:15:57;;;;;;;0.80;0.80;;;8.50;99.90;;;;;;5076664;28;20278;-71
2021/09/18 00:18:23;;;;;;;0.70;0.70;;;8.50;99.90;;;;;;5073718;28;20679;-71
2021/09/18 00:20:48;;;;;;;0.80;0.80;;;8.50;99.90;;;;;;5077893;28;20204;-71
2021/09/18 00:23:14;;;;;;;0.55;0.55;;;8.50;99.90;;;;;;5077631;28;20288;-70
2021/09/18 00:25:40;;;;;;;0.70;0.70;;;8.50;99.90;;;;;;5084652;28;20242;-70
2021/09/18 00:28:06;;;;;;;0.70;0.70;;;8.50;99.90;;;;;;5094417;28;20674;-70
2021/09/18 00:30:31;;;;;;;0.60;0.60;;;8.40;99.90;;;;;;5093362;28;20268;-70
2021/09/18 00:32:57;;;;;;;0.70;0.70;;;8.40;99.90;;;;;;5092853;28;20235;-70
2021/09/18 00:35:23;;;;;;;0.60;0.60;;;8.40;99.90;;;;;;5072227;28;20683;-71
2021/09/18 00:37:49;;;;;;;0.60;0.60;;;8.50;99.90;;;;;;5076194;28;20622;-71
2021/09/18 00:40:15;;;;;;;0.60;0.60;;;8.50;99.90;;;;;;5076852;28;20204;-71
2021/09/18 00:42:40;;;;;;;0.50;0.50;;;8.40;99.90;;;;;;5075677;28;20685;-71
2021/09/18 00:45:07;;;;;;;0.80;0.80;;;8.40;99.90;;;;;;5092629;28;20204;-70
2021/09/18 00:47:33;;;;;;;1.95;0.90;;;8.40;99.90;;;;;;5072566;28;20193;-70
2021/09/18 00:49:58;;;;;;;0.50;0.50;;;8.40;99.90;;;;;;5091178;28;20214;-70
2021/09/18 00:52:24;;;;;;;0.60;0.60;;;8.40;99.90;;;;;;5070612;28;20561;-69
2021/09/18 00:54:50;;;;;;;0.70;0.70;;;8.40;99.90;;;;;;5074071;28;20236;-70
2021/09/18 00:57:17;;;;;;;0.90;0.90;;;8.50;99.90;;;;;;5093776;28;20257;-70
2021/09/18 00:59:43;;;;;;;0.80;0.80;;;8.50;99.90;;;;;;5077931;28;20204;-70
2021/09/18 01:02:09;;;;;;;0.70;0.70;;;8.50;99.90;;;;;;5092477;28;20213;-74
2021/09/18 01:04:36;;;;;;;0.43;0.43;;;8.40;99.90;;;;;;5093171;28;20227;-74
2021/09/18 01:07:02;;;;;;;4.88;1.20;;;8.50;99.90;;;;;;5079141;28;20356;-74
2021/09/18 01:09:29;;;;;;;0.70;0.70;;;8.50;99.90;;;;;;5080759;28;20219;-75
2021/09/18 01:11:55;;;;;;;0.60;0.60;;;8.40;99.90;;;;;;5084560;28;20697;-74
2021/09/18 01:14:21;;;;;;;0.60;0.60;;;8.50;99.90;;;;;;5068598;28;20201;-73
2021/09/18 01:16:47;;;;;;;0.55;0.55;;;8.50;99.90;;;;;;5082469;28;20290;-75
2021/09/18 01:19:12;;;;;;;0.60;0.60;;;8.40;99.90;;;;;;5091708;28;20235;-74
2021/09/18 01:21:38;;;;;;;0.60;0.60;;;8.40;99.90;;;;;;5073749;28;20208;-74
2021/09/18 01:24:05;;;;;;;11.35;1.02;;;8.40;99.90;;;;;;5088407;28;20197;-74
2021/09/18 01:26:36;;;;;;;0.70;0.70;;;8.40;99.90;;;;;;5077254;28;20192;-75
2021/09/18 01:29:04;;;;;;;0.50;0.50;;;8.40;99.90;;;;;;5089064;28;20208;-75
2021/09/18 01:31:30;;;;;;;0.60;0.60;;;8.40;99.90;;;;;;5074342;28;20235;-74
2021/09/18 01:33:56;;;;;;;0.70;0.70;;;8.40;99.90;;;;;;5076710;28;20755;-74
2021/09/18 01:36:21;;;;;;;0.60;0.60;;;8.30;99.90;;;;;;5073222;28;20204;-74
2021/09/18 01:38:49;;;;;;;0.60;0.60;;;8.30;99.90;;;;;;5075563;28;20673;-74
2021/09/18 01:41:15;;;;;;;0.60;0.60;;;8.30;99.90;;;;;;5073379;28;20586;-75
2021/09/18 01:43:44;;;;;;;1.75;1.33;;;8.30;99.90;;;;;;5075460;28;20274;-76
2021/09/18 01:46:10;;;;;;;0.70;0.70;;;8.30;99.90;;;;;;5090609;28;20211;-75
2021/09/18 01:48:37;;;;;;;0.60;0.60;;;8.30;99.90;;;;;;5082768;28;20219;-76
2021/09/18 01:51:06;;;;;;;0.70;0.70;;;8.30;99.90;;;;;;5089534;28;20232;-75
2021/09/18 01:53:32;;;;;;;0.80;0.80;;;8.30;99.90;;;;;;5074951;28;20223;-75
2021/09/18 01:55:58;;;;;;;0.50;0.50;;;8.30;99.90;;;;;;5075394;28;20691;-75
2021/09/18 01:58:24;;;;;;;0.63;0.63;;;8.30;99.90;;;;;;5074001;28;20196;-75
2021/09/18 02:00:53;;;;;;;0.60;0.60;;;8.30;99.90;;;;;;5083611;28;20214;-74
2021/09/18 02:03:19;;;;;;;1.65;1.55;;;8.30;99.90;;;;;;5078715;28;20257;-74
2021/09/18 02:05:45;;;;;;;1.10;0.95;;;8.30;99.90;;;;;;5083849;28;20609;-75
2021/09/18 02:08:12;;;;;;;0.70;0.70;;;8.30;99.90;;;;;;5081333;28;20569;-75
2021/09/18 02:10:38;;;;;;;0.93;0.90;;;8.30;99.90;;;;;;5081034;28;20227;-76
2021/09/18 02:13:08;;;;;;;0.50;0.50;;;8.20;99.90;;;;;;5083061;28;20215;-76
2021/09/18 02:15:33;;;;;;;0.70;0.70;;;8.20;99.90;;;;;;5080199;28;20204;-74
2021/09/18 02:17:59;;;;;;;0.60;0.60;;;8.20;99.90;;;;;;5084884;28;20296;-75
2021/09/18 02:20:29;;;;;;;0.52;0.52;;;8.20;99.90;;;;;;5077995;28;20207;-73
2021/09/18 02:22:56;;;;;;;0.63;0.63;;;8.20;99.90;;;;;;5091733;28;20211;-73
2021/09/18 02:25:22;;;;;;;0.52;0.52;;;8.20;99.90;;;;;;5088397;28;20240;-73
2021/09/18 02:27:49;;;;;;;0.60;0.60;;;8.20;99.90;;;;;;5090578;28;20622;-73
2021/09/18 02:30:27;;;;;;;0.70;0.70;;;8.10;99.90;;;;;;5085971;28;20212;-74
2021/09/18 02:32:54;;;;;;;0.60;0.60;;;8.10;99.90;;;;;;5088307;28;20228;-74
2021/09/18 02:35:21;;;;;;;0.60;0.60;;;8.10;99.90;;;;;;5074714;28;20671;-74
2021/09/18 02:37:49;;;;;;;0.88;0.88;;;8.20;99.90;;;;;;5075964;28;20196;-74
2021/09/18 02:40:16;;;;;;;0.80;0.80;;;8.20;99.90;;;;;;5090328;28;20219;-75
2021/09/18 02:42:43;;;;;;;0.50;0.50;;;8.20;99.90;;;;;;5073395;28;20298;-74
2021/09/18 02:45:10;;;;;;;0.70;0.70;;;8.20;99.90;;;;;;5071025;28;20702;-74
2021/09/18 02:47:36;;;;;;;0.75;0.75;;;8.20;99.90;;;;;;5070385;28;20204;-74
2021/09/18 02:50:03;;;;;;;0.80;0.80;;;8.20;99.90;;;;;;5090043;28;20204;-74
2021/09/18 02:52:29;;;;;;;0.60;0.60;;;8.20;99.90;;;;;;5090440;28;20204;-74
2021/09/18 02:54:54;;;;;;;0.70;0.70;;;8.20;99.90;;;;;;5074649;28;20690;-74
2021/09/18 02:57:20;;;;;;;0.50;0.50;;;8.20;99.90;;;;;;5090378;28;20265;-73
2021/09/18 02:59:45;;;;;;;0.70;0.70;;;8.20;99.90;;;;;;5090511;28;20208;-74
2021/09/18 03:02:11;;;;;;;0.60;0.60;;;8.20;99.90;;;;;;5100139;28;20234;-74
2021/09/18 03:04:37;;;;;;;0.63;0.63;;;8.20;99.90;;;;;;5081680;28;20228;-74
2021/09/18 03:07:03;;;;;;;1.75;0.88;;;8.20;99.90;;;;;;5088756;28;20665;-74
2021/09/18 03:09:28;;;;;;;0.68;0.68;;;8.20;99.90;;;;;;5077577;28;20254;-74
2021/09/18 03:11:54;;;;;;;0.65;0.65;;;8.20;99.90;;;;;;5072268;28;20216;-74
2021/09/18 03:14:20;;;;;;;0.68;0.68;;;8.20;99.90;;;;;;5087203;28;20394;-73
2021/09/18 03:16:46;;;;;;;0.45;0.45;;;8.20;99.90;;;;;;5092552;28;20211;-74
2021/09/18 03:19:11;;;;;;;0.70;0.70;;;8.20;99.90;;;;;;5088550;28;20283;-74
2021/09/18 03:21:37;;;;;;;0.80;0.80;;;8.20;99.90;;;;;;5075477;28;20517;-73
2021/09/18 03:24:03;;;;;;;1.85;1.50;;;8.20;99.90;;;;;;5077744;28;20200;-74
2021/09/18 03:26:29;;;;;;;0.60;0.60;;;8.20;99.90;;;;;;5091622;28;20205;-74
2021/09/18 03:28:54;;;;;;;0.60;0.60;;;8.10;99.90;;;;;;5073714;28;20851;-74
2021/09/18 03:31:20;;;;;;;0.52;0.52;;;8.20;99.90;;;;;;5078050;28;20659;-73
2021/09/18 03:33:45;;;;;;;0.70;0.70;;;8.20;99.90;;;;;;5077396;28;20686;-75
2021/09/18 03:36:12;;;;;;;0.65;0.65;;;8.20;99.90;;;;;;5093050;28;20257;-75
2021/09/18 03:38:38;;;;;;;0.60;0.60;;;8.20;99.90;;;;;;5093180;28;20200;-75
2021/09/18 03:41:03;;;;;;;1.13;0.68;;;8.20;99.90;;;;;;5092563;28;20698;-74
2021/09/18 03:43:29;;;;;;;0.93;0.93;;;8.20;99.90;;;;;;5076629;28;20208;-75
2021/09/18 03:45:55;;;;;;;0.70;0.70;;;8.10;99.90;;;;;;5075053;28;20208;-73
2021/09/18 03:48:21;;;;;;;0.80;0.80;;;8.10;99.90;;;;;;5080262;28;20222;-74
2021/09/18 03:50:47;;;;;;;0.60;0.60;;;8.20;99.90;;;;;;5094438;28;20269;-73
2021/09/18 03:53:13;;;;;;;0.70;0.70;;;8.10;99.90;;;;;;5070260;28;20208;-75
2021/09/18 03:55:39;;;;;;;0.60;0.60;;;8.10;99.90;;;;;;5089521;28;20222;-74
2021/09/18 03:58:06;;;;;;;0.70;0.70;;;8.10;99.90;;;;;;5070281;28;20205;-74
2021/09/18 04:00:33;;;;;;;0.68;0.68;;;8.10;99.90;;;;;;5072205;28;20247;-74
2021/09/18 04:02:59;;;;;;;0.60;0.60;;;8.10;99.90;;;;;;5086254;28;20232;-74
2021/09/18 04:05:24;;;;;;;0.60;0.60;;;8.10;99.90;;;;;;5084984;28;20204;-74
2021/09/18 04:07:50;;;;;;;0.50;0.50;;;8.10;99.90;;;;;;5076922;28;20563;-74
2021/09/18 04:10:16;;;;;;;0.65;0.65;;;8.20;99.90;;;;;;5092954;28;20257;-74
2021/09/18 04:12:42;;;;;;;0.60;0.60;;;8.10;99.90;;;;;;5072419;28;20197;-73
2021/09/18 04:15:08;;;;;;;0.50;0.50;;;8.10;99.90;;;;;;5068844;28;20208;-73
2021/09/18 04:17:34;;;;;;;0.60;0.60;;;8.10;99.90;;;;;;5075868;28;20200;-73
2021/09/18 04:19:59;;;;;;;0.60;0.60;;;8.10;99.90;;;;;;5073869;28;20249;-72
2021/09/18 04:22:25;;;;;;;0.60;0.60;;;8.10;99.90;;;;;;5075396;28;20562;-72
2021/09/18 04:24:50;;;;;;;0.63;0.63;;;8.10;99.90;;;;;;5074836;28;20267;-73
2021/09/18 04:27:16;;;;;;;0.50;0.50;;;8.10;99.90;;;;;;5076250;28;20216;-73
2021/09/18 04:29:42;;;;;;;0.60;0.60;;;8.10;99.90;;;;;;5076006;28;20689;-72
2021/09/18 04:32:08;;;;;;;0.45;0.45;;;8.10;99.90;;;;;;5077491;28;20208;-73
2021/09/18 04:34:33;;;;;;;0.60;0.60;;;8.10;99.90;;;;;;5077204;28;20554;-72
2021/09/18 04:36:59;;;;;;;0.63;0.63;;;8.20;99.90;;;;;;5076375;28;20682;-73
2021/09/18 04:39:25;;;;;;;0.60;0.60;;;8.10;99.90;;;;;;5083704;28;20572;-71
2021/09/18 04:41:51;;;;;;;0.60;0.60;;;8.10;99.90;;;;;;5081389;28;20208;-72
2021/09/18 04:44:17;;;;;;;0.60;0.60;;;8.10;99.90;;;;;;5086585;28;20196;-71
2021/09/18 04:46:43;;;;;;;0.60;0.60;;;8.10;99.90;;;;;;5072376;28;20216;-72
2021/09/18 04:49:10;;;;;;;0.50;0.50;;;8.10;99.90;;;;;;5062503;28;20212;-72
2021/09/18 04:51:36;;;;;;;0.82;0.82;;;8.20;99.90;;;;;;5084186;28;20215;-72
2021/09/18 04:54:02;;;;;;;0.90;0.90;;;8.20;99.90;;;;;;5086582;28;20208;-72
2021/09/18 04:56:28;;;;;;;0.60;0.60;;;8.10;99.90;;;;;;5082461;28;20687;-72
2021/09/18 04:58:53;;;;;;;0.70;0.70;;;8.20;99.90;;;;;;5093213;28;20203;-73
2021/09/18 05:01:19;;;;;;;1.13;1.10;;;8.20;99.90;;;;;;5090235;28;20203;-72
2021/09/18 05:03:45;;;;;;;0.60;0.60;;;8.20;99.90;;;;;;5093143;28;20291;-72
2021/09/18 05:06:10;;;;;;;0.73;0.73;;;8.20;99.90;;;;;;5088630;28;20270;-72
2021/09/18 05:08:36;;;;;;;0.70;0.70;;;8.20;99.90;;;;;;5075750;28;20204;-73
2021/09/18 05:11:02;;;;;;;0.55;0.55;;;8.20;99.90;;;;;;5090844;28;20200;-72
2021/09/18 05:13:27;;;;;;;0.50;0.50;;;8.20;99.90;;;;;;5074692;28;20564;-72
2021/09/18 05:15:53;;;;;;;0.60;0.60;;;8.20;99.90;;;;;;5075257;28;20205;-72
2021/09/18 05:18:19;;;;;;;0.50;0.50;;;8.20;99.90;;;;;;5092039;28;20211;-71
2021/09/18 05:20:44;;;;;;;0.50;0.50;;;8.30;99.90;;;;;;5075105;28;20338;-72
2021/09/18 05:23:10;;;;;;;0.60;0.60;;;8.30;99.90;;;;;;5092623;28;20223;-72
2021/09/18 05:25:36;;;;;;;0.88;0.88;;;8.30;99.90;;;;;;5075955;28;20213;-72
2021/09/18 05:28:01;;;;;;;0.80;0.80;;;8.30;99.90;;;;;;5069952;28;20208;-72
2021/09/18 05:30:27;;;;;;;0.50;0.50;;;8.30;99.90;;;;;;5076253;28;20251;-72
2021/09/18 05:32:53;;;;;;;0.70;0.70;;;8.30;99.90;;;;;;5075936;28;20308;-72
2021/09/18 05:35:18;;;;;;;0.88;0.88;;;8.30;99.90;;;;;;5074287;28;20274;-72
2021/09/18 05:37:44;;;;;;;0.60;0.60;;;8.30;99.90;;;;;;5085328;28;20673;-72
2021/09/18 05:40:11;;;;;;;0.60;0.60;;;8.30;99.90;;;;;;5082952;28;20729;-72
2021/09/18 05:42:37;;;;;;;0.60;0.60;;;8.40;99.90;;;;;;5081621;28;20196;-73
2021/09/18 05:45:04;;;;;;;0.60;0.60;;;8.40;99.90;;;;;;5092375;28;20257;-72
2021/09/18 05:47:30;;;;;;;0.60;0.60;;;8.40;99.90;;;;;;5091091;28;20736;-72
2021/09/18 05:49:56;;;;;;;0.80;0.80;;;8.40;99.90;;;;;;5075420;28;20216;-72
2021/09/18 05:52:22;;;;;;;0.50;0.50;;;8.40;99.90;;;;;;5074193;28;20200;-72
2021/09/18 05:54:47;;;;;;;0.70;0.70;;;8.40;99.90;;;;;;5073126;28;20231;-72
2021/09/18 05:57:13;;;;;;;0.93;0.93;;;8.40;99.90;;;;;;5090661;28;20211;-72
2021/09/18 05:59:39;;;;;;;0.98;0.98;;;8.40;99.90;;;;;;5073737;28;20305;-72
2021/09/18 06:02:05;;;;;;;0.68;0.68;;;8.50;99.90;;;;;;5074535;28;20341;-72
2021/09/18 06:04:30;;;;;;;1.20;1.08;;;8.50;99.90;;;;;;5070595;28;20220;-72
2021/09/18 06:06:56;;;;;;;0.50;0.50;;;8.50;99.90;;;;;;5087897;28;20214;-72
2021/09/18 06:09:22;;;;;;;1.02;1.02;;;8.60;99.90;;;;;;5075948;28;20205;-72
2021/09/18 06:11:47;;;;;;;0.80;0.80;;;8.60;99.90;;;;;;5088206;28;20204;-72
2021/09/18 06:14:13;;;;;;;0.70;0.70;;;8.70;99.90;;;;;;5091031;28;20240;-73
2021/09/18 06:16:38;;;;;;;0.50;0.50;;;8.60;99.90;;;;;;5067826;28;20240;-72
2021/09/18 06:19:04;;;;;;;0.77;0.77;;;8.70;99.90;;;;;;5068013;28;20279;-72
2021/09/18 06:21:30;;;;;;;0.70;0.70;;;8.70;99.90;;;;;;5075144;28;20253;-72
2021/09/18 06:23:56;;;;;;;1.38;0.93;;;8.70;99.90;;;;;;5087131;28;20284;-72
2021/09/18 06:26:21;;;;;;;0.57;0.57;;;8.70;99.90;;;;;;5091868;28;20203;-72
2021/09/18 06:28:47;;;;;;;0.50;0.50;;;8.80;99.90;;;;;;5090673;28;20192;-73
2021/09/18 06:31:13;;;;;;;0.50;0.50;;;8.80;99.90;;;;;;5090780;28;20291;-72
2021/09/18 06:33:39;;;;;;;0.70;0.70;;;8.80;99.90;;;;;;5090152;28;20295;-72
2021/09/18 06:36:05;;;;;;;0.70;0.70;;;8.90;99.90;;;;;;5085461;28;20706;-72
2021/09/18 06:38:30;;;;;;;0.85;0.85;;;8.90;99.90;;;;;;5077010;28;20200;-72
2021/09/18 06:40:58;;;;;;;0.73;0.73;;;8.90;99.90;;;;;;5077574;28;20200;-72
2021/09/18 06:43:24;;;;;;;0.93;0.93;;;8.90;99.90;;;;;;5078972;28;20191;-72
2021/09/18 06:45:51;;;;;;;0.60;0.60;;;8.90;99.90;;;;;;5078285;28;20333;-72
2021/09/18 06:48:17;;;;;;;0.73;0.73;;;9.00;99.90;;;;;;5077082;28;20203;-73
2021/09/18 06:50:43;;;;;;;0.70;0.70;;;9.00;99.90;;;;;;5077995;28;20201;-72
2021/09/18 06:53:10;;;;;;;0.73;0.73;;;9.10;99.90;;;;;;5094489;28;20240;-73
2021/09/18 06:55:37;;;;;;;2.10;1.20;;;9.10;99.90;;;;;;5072986;28;20307;-73
2021/09/18 06:58:03;;;;;;;0.90;0.90;;;9.10;99.90;;;;;;5079330;28;20211;-72
2021/09/18 07:00:30;;;;;;;0.77;0.70;;;9.10;99.90;;;;;;5093516;28;20273;-72
2021/09/18 07:02:55;;;;;;;0.80;0.80;;;9.10;99.90;;;;;;5095257;28;20208;-72
2021/09/18 07:05:22;;;;;;;0.60;0.60;;;9.20;99.90;;;;;;5095159;28;20573;-72
2021/09/18 07:07:47;;;;;;;0.50;0.50;;;9.20;99.90;;;;;;5081784;28;20234;-72
2021/09/18 07:10:13;;;;;;;0.60;0.60;;;9.30;99.90;;;;;;5083766;28;20721;-72
2021/09/18 07:12:40;;;;;;;0.65;0.65;;;9.30;99.90;;;;;;5084248;28;20292;-72
2021/09/18 07:15:07;;;;;;;0.60;0.60;;;9.30;99.90;;;;;;5072361;28;20586;-72
2021/09/18 07:17:33;;;;;;;0.70;0.70;;;9.40;99.90;;;;;;5085281;28;20740;-72
2021/09/18 07:19:59;;;;;;;0.60;0.60;;;9.40;99.90;;;;;;5076646;28;20200;-72
2021/09/18 07:22:25;;;;;;;0.77;0.77;;;9.50;99.90;;;;;;5070811;28;20197;-72
2021/09/18 07:24:51;;;;;;;0.60;0.60;;;9.50;99.90;;;;;;5077370;28;20284;-72
2021/09/18 07:27:18;;;;;;;0.60;0.60;;;9.50;99.90;;;;;;5079798;28;20232;-72
2021/09/18 07:29:45;;;;;;;0.85;0.85;;;9.50;99.90;;;;;;5091212;28;20192;-72
2021/09/18 07:32:11;;;;;;;0.50;0.50;;;9.60;99.90;;;;;;5078917;28;20217;-71
2021/09/18 07:34:37;;;;;;;0.70;0.70;;;9.50;99.90;;;;;;5092967;28;20208;-72
2021/09/18 07:37:03;;;;;;;0.52;0.52;;;9.60;99.90;;;;;;5077773;28;20245;-72
2021/09/18 07:39:29;;;;;;;0.95;0.90;;;9.70;99.90;;;;;;5076922;28;20193;-72
2021/09/18 07:41:55;;;;;;;0.77;0.77;;;9.80;99.90;;;;;;5076447;28;20193;-72
2021/09/18 07:44:21;;;;;;;3.05;1.40;;;9.90;99.90;;;;;;5076883;28;20205;-71
2021/09/18 07:46:47;;;;;;;2.42;0.90;;;9.90;99.90;;;;;;5092827;28;20226;-72
2021/09/18 07:49:12;;;;;;;0.60;0.60;;;9.90;99.90;;;;;;5091971;28;20212;-72
2021/09/18 07:51:38;;;;;;;0.98;0.98;;;9.90;99.90;;;;;;5076013;28;20338;-72
2021/09/18 07:54:04;;;;;;;0.52;0.52;;;9.90;99.90;;;;;;5093730;28;20262;-72
2021/09/18 07:56:29;;;;;;;0.70;0.70;;;10.00;99.90;;;;;;5082358;28;20209;-72
2021/09/18 07:58:57;;;;;;;0.60;0.60;;;10.10;99.90;;;;;;5078137;28;20208;-72
2021/09/18 08:01:24;;;;;;;0.80;0.80;;;10.20;99.90;;;;;;5077468;28;20215;-72
2021/09/18 08:03:51;;;;;;;0.50;0.50;;;10.20;99.90;;;;;;5077673;28;20605;-72
2021/09/18 08:06:17;;;;;;;0.60;0.60;;;10.20;99.90;;;;;;5085955;28;20663;-72
2021/09/18 08:08:42;;;;;;;0.75;0.75;;;10.30;99.90;;;;;;5070600;28;20207;-73
2021/09/18 08:11:08;;;;;;;0.50;0.50;;;10.30;99.90;;;;;;5075079;28;20307;-73
2021/09/18 08:13:34;;;;;;;0.90;0.85;;;10.40;99.90;;;;;;5093909;28;20278;-72
2021/09/18 08:15:59;;;;;;;0.90;0.90;;;10.30;99.90;;;;;;5087399;28;20667;-72
2021/09/18 08:18:25;;;;;;;0.52;0.52;;;10.40;99.90;;;;;;5079200;28;20207;-72
2021/09/18 08:20:51;;;;;;;0.60;0.60;;;10.40;99.90;;;;;;5091028;28;20694;-73
2021/09/18 08:23:16;;;;;;;0.60;0.60;;;10.60;99.90;;;;;;5077634;28;20197;-73
2021/09/18 08:25:42;;;;;;;1.15;1.13;;;10.60;99.90;;;;;;5077611;28;20208;-72
2021/09/18 08:28:08;;;;;;;1.05;0.95;;;10.70;99.90;;;;;;5077461;28;20196;-73
2021/09/18 08:30:35;;;;;;;0.57;0.57;;;10.70;99.90;;;;;;5074842;28;20251;-73
2021/09/18 08:33:01;;;;;;;0.60;0.60;;;10.80;99.90;;;;;;5072720;28;20205;-72
2021/09/18 08:35:27;;;;;;;1.02;0.95;;;10.60;99.90;;;;;;5092786;28;20212;-72
2021/09/18 08:37:52;;;;;;;0.70;0.70;;;10.60;99.90;;;;;;5076257;28;20236;-72
2021/09/18 08:40:18;;;;;;;0.82;0.80;;;10.70;99.90;;;;;;5094040;28;20690;-72
2021/09/18 08:42:43;;;;;;;0.70;0.70;;;10.70;99.90;;;;;;5074385;28;20204;-73
2021/09/18 08:45:13;;;;;;;0.60;0.60;;;10.70;99.90;;;;;;5072196;28;20215;-73
2021/09/18 08:47:41;;;;;;;0.60;0.60;;;10.80;99.90;;;;;;5086633;28;20303;-73
2021/09/18 08:50:12;;;;;;;1.27;0.90;;;10.90;99.90;;;;;;5092051;28;20631;-73
2021/09/18 08:52:39;;;;;;;1.00;1.00;;;10.90;99.90;;;;;;5074753;28;20228;-73
2021/09/18 08:55:05;;;;;;;0.60;0.60;;;11.10;99.90;;;;;;5080728;28;20679;-73
2021/09/18 08:57:31;;;;;;;0.60;0.60;;;11.20;99.90;;;;;;5069272;28;20236;-73
2021/09/18 08:59:56;;;;;;;0.77;0.73;;;11.10;99.90;;;;;;5076144;28;20197;-73
2021/09/18 09:02:30;;;;;;;0.50;0.50;;;11.10;99.90;;;;;;5074959;28;20604;-72
2021/09/18 09:05:07;;;;;;;0.60;0.60;;;11.20;99.90;;;;;;5084825;28;20774;-72
2021/09/18 09:07:33;;;;;;;0.70;0.70;;;11.20;99.90;;;;;;5069830;28;20299;-73
2021/09/18 09:10:05;;;;;;;0.65;0.65;;;11.10;99.90;;;;;;5082517;28;20776;-72
2021/09/18 09:12:36;;;;;;;2.13;1.77;;;11.30;99.90;;;;;;5074919;28;20292;-72
2021/09/18 09:15:06;;;;;;;0.50;0.50;;;11.30;99.90;;;;;;5075175;28;20220;-73
2021/09/18 09:17:36;;;;;;;0.60;0.60;;;11.30;99.90;;;;;;5076150;28;20189;-73
2021/09/18 09:20:04;;;;;;;0.60;0.60;;;11.30;99.90;;;;;;5071223;28;20205;-73
2021/09/18 09:22:46;;;;;;;0.98;0.98;;;11.30;99.90;;;;;;5079218;28;20195;-73
2021/09/18 09:25:32;;;;;;;0.95;0.75;;;11.40;99.90;;;;;;5093194;28;20207;-73
2021/09/18 09:28:21;;;;;;;3.15;0.82;;;11.40;99.90;;;;;;5090382;28;20239;-73
2021/09/18 09:30:47;;;;;;;0.95;0.95;;;11.50;99.90;;;;;;5092546;28;20204;-73
2021/09/18 09:33:13;;;;;;;0.60;0.60;;;11.50;99.90;;;;;;5090272;28;20207;-73
2021/09/18 09:35:38;;;;;;;0.60;0.60;;;11.70;99.90;;;;;;5089992;28;20215;-72
2021/09/18 09:38:06;;;;;;;0.65;0.65;;;11.90;99.90;;;;;;5081655;28;20205;-72
2021/09/18 09:40:42;;;;;;;0.60;0.60;;;11.90;99.90;;;;;;5069404;28;20236;-72
2021/09/18 09:43:10;;;;;;;0.52;0.52;;;11.80;99.90;;;;;;5068695;28;20200;-72
2021/09/18 09:45:36;;;;;;;8.75;1.23;;;11.90;99.90;;;;;;5074396;28;20208;-73
2021/09/18 09:48:10;;;;;;;0.70;0.70;;;12.00;99.90;;;;;;5074643;28;20209;-73
2021/09/18 09:50:38;;;;;;;0.85;0.85;;;12.20;99.90;;;;;;5092163;28;20693;-73
2021/09/18 09:53:05;;;;;;;0.55;0.55;;;12.20;99.90;;;;;;5091413;28;20643;-72
2021/09/18 09:55:36;;;;;;;0.80;0.80;;;11.90;99.90;;;;;;5085797;28;20208;-72
2021/09/18 09:58:05;;;;;;;0.60;0.60;;;12.10;99.90;;;;;;5074765;28;20204;-72
2021/09/18 10:00:42;;;;;;;1.10;1.00;;;12.10;99.90;;;;;;5079240;28;20203;-72
2021/09/18 10:03:09;;;;;;;0.57;0.57;;;12.20;99.90;;;;;;5077161;28;20227;-72
2021/09/18 10:05:36;;;;;;;0.60;0.60;;;12.30;99.90;;;;;;5050496;28;20209;-72
2021/09/18 10:08:03;;;;;;;1.40;0.98;;;12.30;99.90;;;;;;5047204;28;20213;-72
2021/09/18 10:10:30;;;;;;;0.77;0.77;;;12.20;99.90;;;;;;5037919;28;20197;-72
2021/09/18 10:12:57;;;;;;;0.50;0.50;;;12.30;99.90;;;;;;5049600;28;20694;-72
2021/09/18 10:15:28;;;;;;;0.77;0.77;;;12.30;99.90;;;;;;5050383;28;20205;-72
2021/09/18 10:17:56;;;;;;;0.70;0.70;;;12.50;99.90;;;;;;5050480;28;20213;-72
2021/09/18 10:25:39;;;;;;;0.77;0.77;;;13.00;99.90;;;;;;5051687;28;20286;-73
2021/09/18 10:28:13;;;;;;;0.77;0.77;;;13.20;99.90;;;;;;5051688;28;20760;-72
2021/09/18 10:30:54;;;;;;;0.60;0.60;;;13.10;99.90;;;;;;5048937;28;23764;-73
2021/09/18 10:33:42;;;;;;;0.82;0.82;;;12.90;99.90;;;;;;5049818;28;20250;-72
2021/09/18 10:36:18;;;;;;;0.60;0.60;;;12.90;99.90;;;;;;5048204;28;20204;-73
2021/09/18 10:39:06;;;;;;;0.85;0.85;;;12.90;99.90;;;;;;5050144;28;20326;-73
2021/09/18 10:41:41;;;;;;;0.60;0.60;;;12.90;99.90;;;;;;5048766;28;20197;-73
2021/09/18 10:44:07;;;;;;;0.50;0.50;;;12.90;99.90;;;;;;5050228;28;20675;-73
2021/09/18 10:46:51;;;;;;;0.70;0.70;;;12.90;99.90;;;;;;5048571;28;20347;-73
2021/09/18 10:49:32;;;;;;;0.75;0.75;;;12.80;99.90;;;;;;5050190;28;20629;-72
2021/09/18 10:52:16;;;;;;;0.50;0.50;;;12.70;99.90;;;;;;5049857;28;20197;-72
2021/09/18 10:55:10;;;;;;;0.70;0.70;;;12.80;99.90;;;;;;5049976;28;20209;-72
2021/09/18 10:57:38;;;;;;;0.60;0.60;;;12.90;99.90;;;;;;5051122;28;20810;-72
2021/09/18 11:00:05;;;;;;;0.50;0.50;;;12.90;99.90;;;;;;5050668;28;20205;-72
2021/09/18 11:02:33;;;;;;;0.50;0.50;;;12.90;99.90;;;;;;5050990;28;20198;-72
2021/09/18 11:05:31;;;;;;;0.50;0.50;;;12.90;99.90;;;;;;5087996;28;20309;-72
2021/09/18 11:08:20;;;;;;;0.60;0.60;;;12.70;99.90;;;;;;5089067;28;20208;-72
2021/09/18 11:10:50;;;;;;;0.60;0.60;;;12.80;99.90;;;;;;5075661;28;20291;-72
2021/09/18 11:13:15;;;;;;;0.50;0.50;;;12.70;99.90;;;;;;5077570;28;20209;-73
2021/09/18 11:15:43;;;;;;;0.60;0.60;;;12.60;99.90;;;;;;5070313;28;20286;-72
2021/09/18 11:18:36;;;;;;;0.60;0.60;;;12.60;99.90;;;;;;5078670;28;20208;-73
2021/09/18 11:21:18;;;;;;;0.57;0.57;;;12.70;99.90;;;;;;5064757;28;20241;-73
2021/09/18 11:23:50;;;;;;;0.93;0.85;;;12.70;99.90;;;;;;5076524;28;20511;-73
2021/09/18 11:26:50;;;;;;;0.80;0.80;;;12.80;99.90;;;;;;5077441;28;20386;-72
2021/09/18 11:29:32;;;;;;;0.65;0.65;;;13.00;99.90;;;;;;5076783;28;20228;-72
2021/09/18 11:32:18;;;;;;;0.50;0.50;;;13.00;99.90;;;;;;5093243;28;20204;-73
2021/09/18 11:34:52;;;;;;;0.70;0.70;;;13.30;99.90;;;;;;5078304;28;20185;-73
2021/09/18 11:37:28;;;;;;;1.02;0.77;;;13.40;99.90;;;;;;5058781;28;20193;-73
2021/09/18 11:39:54;;;;;;;0.50;0.50;;;13.70;99.90;;;;;;5093398;28;20203;-71
2021/09/18 11:42:31;;;;;;;0.60;0.60;;;14.00;99.90;;;;;;5074680;28;20204;-71
2021/09/18 11:45:02;;;;;;;0.47;0.47;;;14.30;99.90;;;;;;5074300;28;20568;-73
2021/09/18 11:47:33;;;;;;;0.50;0.50;;;14.70;99.90;;;;;;5094395;28;20224;-71
2021/09/18 11:49:59;;;;;;;0.60;0.60;;;15.20;99.90;;;;;;5075069;28;20296;-73
2021/09/18 11:52:33;;;;;;;0.50;0.50;;;15.20;99.90;;;;;;5074372;28;20621;-72
2021/09/18 11:54:59;;;;;;;0.50;0.50;;;14.90;99.90;;;;;;5074978;28;20689;-72
2021/09/18 11:57:24;;;;;;;1.15;0.85;;;14.70;99.90;;;;;;5073809;28;20193;-72
2021/09/18 11:59:50;;;;;;;0.50;0.50;;;14.30;99.90;;;;;;5093423;28;20215;-72
2021/09/18 12:02:30;;;;;;;0.52;0.52;;;14.20;99.90;;;;;;5094077;28;20209;-72
2021/09/18 12:04:55;;;;;;;0.50;0.50;;;13.90;99.90;;;;;;5093585;28;20234;-72
2021/09/18 12:07:21;;;;;;;0.50;0.50;;;13.80;99.90;;;;;;5077956;28;20200;-72
2021/09/18 12:09:47;;;;;;;0.68;0.68;;;13.60;99.90;;;;;;5086610;28;20215;-72
2021/09/18 12:12:13;;;;;;;0.60;0.60;;;13.40;99.90;;;;;;5093294;28;20564;-72
2021/09/18 12:14:39;;;;;;;0.70;0.70;;;13.40;99.90;;;;;;5081094;28;20208;-73
2021/09/18 12:17:36;;;;;;;1.95;0.98;;;13.40;99.90;;;;;;5076249;28;20228;-71
2021/09/18 12:20:08;;;;;;;0.50;0.50;;;13.30;99.90;;;;;;5075480;28;20217;-72
2021/09/18 12:22:34;;;;;;;0.50;0.50;;;13.00;99.90;;;;;;5090935;28;20203;-73
2021/09/18 12:25:00;;;;;;;0.80;0.80;;;13.10;99.90;;;;;;5092759;28;20208;-72
2021/09/18 12:27:29;;;;;;;1.27;0.98;;;13.00;99.90;;;;;;5092498;28;20208;-73
2021/09/18 12:29:56;;;;;;;0.60;0.60;;;13.00;99.90;;;;;;5092666;28;20655;-73
2021/09/18 12:32:22;;;;;;;0.50;0.50;;;12.90;99.90;;;;;;5081614;28;20201;-73
2021/09/18 12:34:49;;;;;;;0.70;0.70;;;13.00;99.90;;;;;;5069124;28;20212;-73
2021/09/18 12:37:17;;;;;;;0.60;0.60;;;13.00;99.90;;;;;;5075792;28;20250;-72
2021/09/18 12:39:43;;;;;;;0.75;0.75;;;13.00;99.90;;;;;;5075633;28;20287;-73
2021/09/18 12:42:10;;;;;;;0.60;0.60;;;13.00;99.90;;;;;;5072818;28;20204;-72
2021/09/18 12:44:38;;;;;;;0.50;0.50;;;13.00;99.90;;;;;;5076098;28;20207;-72
2021/09/18 12:47:03;;;;;;;0.60;0.60;;;12.90;99.90;;;;;;5088953;28;20204;-72
2021/09/18 12:49:34;;;;;;;0.60;0.60;;;12.90;99.90;;;;;;5069022;28;20205;-73
2021/09/18 12:52:03;;;;;;;0.70;0.70;;;12.90;99.90;;;;;;5080201;28;20200;-72
2021/09/18 12:54:40;;;;;;;0.60;0.60;;;12.80;99.90;;;;;;5091341;28;20203;-72
2021/09/18 12:57:06;;;;;;;0.70;0.70;;;12.80;99.90;;;;;;5093220;28;20204;-72
2021/09/18 12:59:43;;;;;;;0.50;0.50;;;12.60;99.90;;;;;;5091408;28;20204;-73
2021/09/18 13:02:10;;;;;;;0.60;0.60;;;12.60;99.90;;;;;;5076260;28;20200;-72